createdAt,value
2022-09-02T00:05:05.326Z,0.6254180602006689
2022-09-02T00:12:25.406Z,0.7290969899665551
2022-09-02T00:18:45.832Z,0.8327759197324415
2022-09-02T00:25:14.048Z,0.7424749163879598
2022-09-02T00:31:34.642Z,1.2508361204013378
2022-09-02T00:38:00.744Z,1.0033444816053512
2022-09-02T00:44:21.925Z,1.5618729096989967
2022-09-02T00:51:41.846Z,1.0769230769230769
2022-09-02T00:58:03.285Z,1.1638795986622072
2022-09-02T01:04:29.815Z,0.9933110367892977
2022-09-02T01:10:50.700Z,1.3578595317725752
2022-09-02T01:17:11.719Z,2.5250836120401337
2022-09-02T01:23:42.131Z,2.230769230769231
2022-09-02T01:30:03.155Z,1.548494983277592
2022-09-02T01:36:23.465Z,1.6755852842809364
2022-09-02T01:42:44.338Z,1.4013377926421404
2022-09-02T01:49:05.067Z,1.2107023411371238
2022-09-02T01:55:25.236Z,1.7792642140468227
2022-09-02T02:01:45.787Z,2.280936454849498
2022-09-02T02:17:53.655Z,1.7993311036789297
2022-09-02T02:24:19.971Z,1.882943143812709
2022-09-02T02:30:40.845Z,1.7926421404682273
2022-09-02T02:37:01.717Z,2.197324414715719
2022-09-02T02:43:22.629Z,1.9431438127090301
2022-09-02T02:49:43.276Z,2.2040133779264215
2022-09-02T02:56:04.009Z,2.220735785953177
2022-09-02T03:02:24.931Z,2.117056856187291
2022-09-02T03:10:31.588Z,2.157190635451505
2022-09-02T03:16:51.562Z,2.197324414715719
2022-09-02T03:23:19.203Z,2.5217391304347827
2022-09-02T03:29:46.816Z,2.802675585284281
2022-09-02T03:36:07.596Z,2.6655518394648827
2022-09-02T03:42:28.174Z,2.4581939799331103
2022-09-02T03:48:48.395Z,2.4046822742474916
2022-09-02T03:55:08.870Z,2.57190635451505
2022-09-02T04:04:44.021Z,2.698996655518395
2022-09-02T04:11:04.278Z,2.5150501672240804
2022-09-02T04:17:24.953Z,3.0501672240802677
2022-09-02T04:23:53.506Z,3.391304347826087
2022-09-02T04:30:14.343Z,3.274247491638796
2022-09-02T04:36:35.776Z,3.1471571906354514
2022-09-02T04:42:56.417Z,3.9264214046822743
2022-09-02T04:49:17.459Z,3.568561872909699
2022-09-02T04:55:38.237Z,3.648829431438127
2022-09-02T05:01:58.996Z,3.6722408026755855
2022-09-02T05:08:21.462Z,4.31438127090301
2022-09-02T05:14:42.653Z,4.043478260869565
2022-09-02T05:21:03.147Z,4.538461538461538
2022-09-02T05:27:26.909Z,4.3879598662207355
2022-09-02T05:33:48.484Z,4.050167224080267
2022-09-02T05:40:09.827Z,4.2441471571906355
2022-09-02T05:46:35.788Z,4.3478260869565215
2022-09-02T05:52:56.757Z,4.183946488294314
2022-09-02T05:59:17.201Z,4.735785953177258
2022-09-02T06:06:38.333Z,4.973244147157191
2022-09-02T06:15:52.863Z,4.217391304347826
2022-09-02T06:27:36.052Z,4.866220735785953
2022-09-02T06:33:56.846Z,4.926421404682274
2022-09-02T06:40:18.190Z,4.812709030100335
2022-09-02T06:46:39.301Z,5.1438127090301
2022-09-02T06:53:02.184Z,5.05685618729097
2022-09-02T06:59:23.305Z,5.070234113712375
2022-09-02T07:06:30.124Z,4.996655518394649
2022-09-02T07:14:18.093Z,4.361204013377926
2022-09-02T07:20:38.783Z,6.48494983277592
2022-09-02T07:27:55.370Z,5.381270903010034
2022-09-02T07:34:16.131Z,5.033444816053512
2022-09-02T07:40:36.698Z,5.374581939799331
2022-09-02T08:01:50.701Z,3.8461538461538463
2022-09-02T08:12:25.881Z,3.8327759197324416
2022-09-02T08:18:46.661Z,3.5819397993311037
2022-09-02T08:25:12.775Z,3.8361204013377925
2022-09-02T08:40:50.635Z,3.7525083612040135
2022-09-02T08:47:11.905Z,4.147157190635451
2022-09-02T08:53:33.718Z,4.451505016722408
2022-09-02T08:59:54.485Z,4.304347826086956
2022-09-02T09:07:38.434Z,4.187290969899665
2022-09-02T09:17:50.543Z,4.277591973244147
2022-09-02T09:24:21.637Z,4.548494983277592
2022-09-02T09:30:42.933Z,4.046822742474917
2022-09-02T09:37:04.543Z,4.337792642140468
2022-09-02T09:43:26.252Z,4.3076923076923075
2022-09-02T09:49:47.459Z,3.8862876254180603
2022-09-02T09:56:09.604Z,3.6755852842809364
2022-09-02T10:02:34.474Z,3.4816053511705687
2022-09-02T10:19:27.910Z,3.79933110367893
2022-09-02T10:25:54.080Z,3.4816053511705687
2022-09-02T10:36:20.810Z,3.3745819397993313
2022-09-02T10:42:43.062Z,3.4983277591973243
2022-09-02T10:49:04.979Z,3.0735785953177257
2022-09-02T10:55:26.132Z,2.4180602006688963
2022-09-02T11:01:47.421Z,2.6421404682274248
2022-09-02T11:08:08.961Z,3.4247491638795986
2022-09-02T11:14:29.769Z,3.5785953177257523
2022-09-02T11:25:02.300Z,5.879598662207358
2022-09-02T11:33:05.914Z,6.147157190635451
2022-09-02T11:41:37.582Z,6.468227424749164
2022-09-02T11:47:59.555Z,8.25752508361204
2022-09-02T11:54:20.768Z,6.635451505016722
2022-09-02T12:00:41.783Z,4.45819397993311
2022-09-02T12:07:05.758Z,4.287625418060201
2022-09-02T12:15:22.388Z,4.45819397993311
2022-09-02T12:21:43.869Z,2.6220735785953178
2022-09-02T12:28:10.482Z,2.9163879598662206
2022-09-02T12:34:32.784Z,2.528428093645485
2022-09-02T12:40:54.513Z,2.698996655518395
2022-09-02T12:47:16.869Z,3.160535117056856
2022-09-02T12:53:38.921Z,2.3244147157190636
2022-09-02T13:00:00.843Z,2.016722408026756
2022-09-02T13:06:22.752Z,2.5016722408026757
2022-09-02T13:12:43.837Z,2.5986622073578594
2022-09-02T13:19:05.973Z,1.8160535117056855
2022-09-02T13:25:33.849Z,2.3612040133779266
2022-09-02T13:31:56.185Z,2.3946488294314383
2022-09-02T13:38:20.910Z,2.591973244147157
2022-09-02T13:50:53.473Z,3.1939799331103678
2022-09-02T14:01:04.014Z,2.5217391304347827
2022-09-02T14:07:25.023Z,1.9230769230769231
2022-09-02T14:13:46.083Z,2.2274247491638794
2022-09-02T14:20:07.823Z,2.9698996655518393
2022-09-02T14:26:36.318Z,3.157190635451505
2022-09-02T14:32:57.175Z,3.076923076923077
2022-09-02T14:39:20.041Z,2.7123745819397995
2022-09-02T14:50:11.651Z,3.351170568561873
2022-09-02T14:56:32.891Z,3.588628762541806
2022-09-02T15:02:54.051Z,3.3812709030100336
2022-09-02T15:09:16.557Z,3.411371237458194
2022-09-02T15:15:38.908Z,3.769230769230769
2022-09-02T15:21:59.869Z,2.79933110367893
2022-09-02T15:28:31.472Z,2.9732441471571907
2022-09-02T15:38:02.174Z,3.317725752508361
2022-09-02T15:44:23.521Z,3.274247491638796
2022-09-02T15:50:46.653Z,2.74247491638796
2022-09-02T15:57:09.467Z,2.9933110367892977
2022-09-02T16:04:48.667Z,3.277591973244147
2022-09-02T16:11:10.891Z,3.367892976588629
2022-09-02T16:17:32.444Z,3.0234113712374584
2022-09-02T16:24:05.263Z,2.739130434782609
2022-09-02T16:30:28.735Z,2.7725752508361206
2022-09-02T16:36:50.186Z,2.782608695652174
2022-09-02T16:43:15.591Z,2.8862876254180603
2022-09-02T16:49:37.517Z,2.568561872909699
2022-09-02T16:55:59.256Z,2.8929765886287626
2022-09-02T17:02:21.479Z,3.016722408026756
2022-09-02T17:08:55.455Z,2.8929765886287626
2022-09-02T17:15:17.221Z,2.5752508361204014
2022-09-02T17:21:38.572Z,2.6755852842809364
2022-09-02T17:28:00.809Z,3.6588628762541804
2022-09-02T17:34:22.974Z,3.274247491638796
2022-09-02T17:40:44.742Z,3.280936454849498
2022-09-02T17:47:06.756Z,2.979933110367893
2022-09-02T17:53:28.443Z,3.668896321070234
2022-09-02T17:59:50.093Z,4.839464882943144
2022-09-02T18:06:11.765Z,4.287625418060201
2022-09-02T18:12:33.439Z,3.9130434782608696
2022-09-02T18:22:35.861Z,3.016722408026756
2022-09-02T18:28:58.015Z,3.076923076923077
2022-09-02T18:35:19.532Z,3.391304347826087
2022-09-02T18:41:41.472Z,4.869565217391305
2022-09-02T18:48:03.876Z,4.933110367892977
2022-09-02T18:56:40.525Z,3.8327759197324416
2022-09-02T19:03:02.027Z,3.879598662207358
2022-09-02T19:09:24.147Z,4.9799331103678925
2022-09-02T19:15:45.697Z,3.762541806020067
2022-09-02T19:22:07.536Z,3.210702341137124
2022-09-02T19:28:29.301Z,3.9732441471571907
2022-09-02T19:34:51.261Z,3.197324414715719
2022-09-02T19:41:12.706Z,3.705685618729097
2022-09-02T19:55:22.855Z,2.612040133779264
2022-09-02T20:01:45.453Z,3.17056856187291
2022-09-02T20:14:46.939Z,3.31438127090301
2022-09-02T20:36:11.420Z,2.789297658862876
2022-09-02T20:48:41.763Z,2.6053511705685617
2022-09-02T20:57:56.477Z,2.311036789297659
2022-09-02T21:04:17.985Z,2.1638795986622075
2022-09-02T21:10:40.298Z,2.548494983277592
2022-09-02T21:17:30.493Z,2.3043478260869565
2022-09-02T21:25:32.237Z,1.7525083612040133
2022-09-02T21:37:52.794Z,2.020066889632107
2022-09-02T21:44:15.127Z,2.5551839464882944
2022-09-02T21:53:36.864Z,2.4013377926421406
2022-09-02T22:03:57.248Z,2.37123745819398
2022-09-02T22:10:19.083Z,2.100334448160535
2022-09-02T22:16:41.566Z,2.451505016722408
2022-09-02T22:23:09.392Z,2.270903010033445
2022-09-02T22:29:32.138Z,2.411371237458194
2022-09-02T22:35:56.184Z,2.5585284280936453
2022-09-02T22:42:21.403Z,2.4448160535117056
2022-09-02T22:48:44.672Z,2.7157190635451505
2022-09-02T22:55:07.236Z,2.3444816053511706
2022-09-02T23:01:29.216Z,2.8963210702341136
2022-09-02T23:07:50.856Z,2.9163879598662206
2022-09-02T23:14:12.825Z,2.5752508361204014
2022-09-02T23:30:30.051Z,2.729096989966555
2022-09-02T23:36:52.472Z,2.6956521739130435
2022-09-02T23:47:07.673Z,2.839464882943144
2022-09-02T23:53:29.476Z,2.9698996655518393
2022-09-02T23:59:54.722Z,2.9698996655518393
